Flight Track Log - Related Links

Times and Time Zones

All times are in EDT time to prevent confusion due to time zone crossing. See the KAP910 flight status page for this flight to view local times or setup timezone preferences in your user account.

Time Position Orientation Groundspeed Altitude Reporting Facility
EDT Latitude Longitude Course Direction KTS MPH feet Rate Location/Type
Thu 10:15:52 AM 42.3500 -70.9833 180° South 114 131 600  Level KA90
Thu 10:16:53 AM 42.3500 -70.9333 90° East 119 137 1,100 545 Climbing KA90
Thu 10:17:53 AM 42.3333 -70.8833 114° Southeast 125 144 1,700 545 Climbing KA90
Thu 10:18:54 AM 42.3167 -70.8500 124° Southeast 123 142 2,200 443 Climbing KA90
Thu 10:19:55 AM 42.2833 -70.8167 144° Southeast 135 155 2,600 397 Climbing KA90
Thu 10:20:55 AM 42.2667 -70.7833 124° Southeast 140 161 3,000 435 Climbing KA90
Thu 10:21:59 AM 42.2333 -70.7500 143° Southeast 133 153 3,500 432 Climbing KA90
Thu 10:23:00 AM 42.1833 -70.7333 166° South 137 158 3,900 393 Climbing KA90
Thu 10:24:00 AM 42.1768 -70.6873 101° East  Level FlightAware Approximate
Thu 10:31:00 AM 41.9605 -70.5386 114° Southeast  Level Estimated
Thu 10:32:00 AM 41.9657 -70.4925 81° East  Level FlightAware Approximate
Thu 10:33:00 AM 41.9709 -70.4464 81° East  Level FlightAware Approximate
Thu 10:34:00 AM 41.9761 -70.4002 81° East  Level FlightAware Approximate
Thu 10:35:00 AM 41.9813 -70.3541 81° East  Level FlightAware Approximate
Thu 10:36:00 AM 41.9864 -70.3079 81° East  Level FlightAware Approximate
Thu 10:37:00 AM 41.9916 -70.2617 81° East  Level FlightAware Approximate
Thu 10:38:00 AM 41.9967 -70.2156 82° East  Level FlightAware Approximate
Thu 10:39:00 AM 41.9624 -70.2083 180° South  Level Estimated
Thu 10:40:00 AM 41.9297 -70.1925 160° South  Level FlightAware Approximate
Thu 10:41:00 AM 41.8971 -70.1766 160° South  Level FlightAware Approximate
Thu 10:42:00 AM 41.8645 -70.1608 160° South  Level FlightAware Approximate
Thu 10:43:00 AM 41.8318 -70.1450 160° South  Level FlightAware Approximate
Thu 10:44:00 AM 41.7992 -70.1292 160° South  Level FlightAware Approximate
Thu 10:45:00 AM 41.7665 -70.1135 160° South  Level FlightAware Approximate
Thu 10:46:00 AM 41.7339 -70.0977 160° South  Level FlightAware Approximate
Thu 10:47:00 AM 41.7012 -70.0820 160° South  Level FlightAware Approximate
Thu 10:48:00 AM 41.6686 -70.0663 160° South  Level FlightAware Approximate
Thu 10:49:00 AM 41.6359 -70.0506 160° South  Level FlightAware Approximate
Thu 10:50:00 AM 41.6033 -70.0349 160° South  Level FlightAware Approximate
Thu 10:51:00 AM 41.5847 -70.0364 189° South  Level FlightAware Approximate
Thu 10:52:00 AM 41.5503 -70.0433 189° South  Level FlightAware Approximate
Thu 10:53:00 AM 41.5160 -70.0500 180° South  Level FlightAware Approximate
Thu 10:54:00 AM 41.4813 -70.0500 180° South  Level FlightAware Approximate
Thu 10:55:00 AM 41.4466 -70.0500 180° South  Level FlightAware Approximate
Thu 10:56:00 AM 41.4119 -70.0500 180° South  Level FlightAware Approximate
Thu 10:57:00 AM 41.3772 -70.0500 180° South  Level FlightAware Approximate
Thu 10:58:00 AM 41.3425 -70.0500 180° South  Level FlightAware Approximate
Thu 10:59:00 AM 41.3078 -70.0500 180° South  Level FlightAware Approximate

Login

Don't have an account? Register now (free) for customized features, flight alerts, and more!